sensor_id;sensor_type;location;lat;lon;timestamp;pressure;altitude;pressure_sealevel;temperature;humidity
61645;BME280;47553;52.428;13.382;2022-12-07T00:01:45;100751.03;;;2.63;100.00
61645;BME280;47553;52.428;13.382;2022-12-07T00:03:49;100732.88;;;2.53;100.00
61645;BME280;47553;52.428;13.382;2022-12-07T00:05:52;100744.19;;;2.56;100.00
61645;BME280;47553;52.428;13.382;2022-12-07T00:07:53;100743.47;;;2.49;100.00
61645;BME280;47553;52.428;13.382;2022-12-07T00:09:57;100737.41;;;2.46;100.00
61645;BME280;47553;52.428;13.382;2022-12-07T00:11:59;100740.97;;;2.45;100.00
61645;BME280;47553;52.428;13.382;2022-12-07T00:14:01;100735.19;;;2.29;100.00
61645;BME280;47553;52.428;13.382;2022-12-07T00:16:05;100734.25;;;2.32;100.00
61645;BME280;47553;52.428;13.382;2022-12-07T00:18:08;100729.16;;;2.26;100.00
61645;BME280;47553;52.428;13.382;2022-12-07T00:20:10;100735.97;;;2.34;100.00
61645;BME280;47553;52.428;13.382;2022-12-07T00:22:12;100738.63;;;2.33;100.00
61645;BME280;47553;52.428;13.382;2022-12-07T00:24:14;100729.72;;;2.38;100.00
61645;BME280;47553;52.428;13.382;2022-12-07T00:26:18;100735.69;;;2.45;100.00
61645;BME280;47553;52.428;13.382;2022-12-07T00:28:20;100738.63;;;2.33;100.00
61645;BME280;47553;52.428;13.382;2022-12-07T00:30:23;100735.28;;;2.26;100.00
61645;BME280;47553;52.428;13.382;2022-12-07T00:32:25;100729.38;;;2.16;100.00
61645;BME280;47553;52.428;13.382;2022-12-07T00:34:30;100718.69;;;2.23;100.00
61645;BME280;47553;52.428;13.382;2022-12-07T00:36:32;100720.56;;;2.17;100.00
61645;BME280;47553;52.428;13.382;2022-12-07T00:38:35;100717.41;;;2.03;100.00
61645;BME280;47553;52.428;13.382;2022-12-07T00:40:37;100717.47;;;2.00;100.00
61645;BME280;47553;52.428;13.382;2022-12-07T00:42:39;100716.56;;;2.01;100.00
61645;BME280;47553;52.428;13.382;2022-12-07T00:44:41;100707.50;;;1.76;100.00
61645;BME280;47553;52.428;13.382;2022-12-07T00:46:43;100707.63;;;1.70;100.00
61645;BME280;47553;52.428;13.382;2022-12-07T00:48:45;100707.44;;;1.77;100.00
61645;BME280;47553;52.428;13.382;2022-12-07T00:50:50;100713.78;;;1.69;100.00
61645;BME280;47553;52.428;13.382;2022-12-07T00:52:52;100696.25;;;1.69;100.00
61645;BME280;47553;52.428;13.382;2022-12-07T00:55:03;100670.97;;;1.64;100.00
61645;BME280;47553;52.428;13.382;2022-12-07T00:57:17;100693.50;;;1.74;100.00
61645;BME280;47553;52.428;13.382;2022-12-07T00:59:20;100700.16;;;1.90;100.00
61645;BME280;47553;52.428;13.382;2022-12-07T01:01:23;100704.63;;;1.86;100.00
61645;BME280;47553;52.428;13.382;2022-12-07T01:03:25;100703.66;;;1.91;100.00
61645;BME280;47553;52.428;13.382;2022-12-07T01:05:27;100695.78;;;1.89;100.00
61645;BME280;47553;52.428;13.382;2022-12-07T01:07:28;100681.44;;;1.65;100.00
61645;BME280;47553;52.428;13.382;2022-12-07T01:09:30;100701.72;;;1.97;100.00
61645;BME280;47553;52.428;13.382;2022-12-07T01:11:32;100678.50;;;1.79;100.00
61645;BME280;47553;52.428;13.382;2022-12-07T01:13:35;100691.28;;;1.94;100.00
61645;BME280;47553;52.428;13.382;2022-12-07T01:15:40;100698.09;;;2.04;100.00
61645;BME280;47553;52.428;13.382;2022-12-07T01:17:42;100695.59;;;2.34;100.00
61645;BME280;47553;52.428;13.382;2022-12-07T01:19:44;100694.09;;;2.24;100.00
61645;BME280;47553;52.428;13.382;2022-12-07T01:21:45;100685.63;;;2.12;100.00
61645;BME280;47553;52.428;13.382;2022-12-07T01:23:47;100690.88;;;2.12;100.00
61645;BME280;47553;52.428;13.382;2022-12-07T01:25:54;100692.53;;;2.16;100.00
61645;BME280;47553;52.428;13.382;2022-12-07T01:27:56;100677.72;;;2.12;100.00
61645;BME280;47553;52.428;13.382;2022-12-07T01:29:58;100679.34;;;2.18;100.00
61645;BME280;47553;52.428;13.382;2022-12-07T01:32:01;100684.34;;;2.29;100.00
61645;BME280;47553;52.428;13.382;2022-12-07T01:34:03;100679.06;;;2.29;100.00
61645;BME280;47553;52.428;13.382;2022-12-07T01:36:05;100665.91;;;2.29;100.00
61645;BME280;47553;52.428;13.382;2022-12-07T01:38:07;100677.38;;;2.26;100.00
61645;BME280;47553;52.428;13.382;2022-12-07T01:40:10;100670.50;;;2.21;100.00
61645;BME280;47553;52.428;13.382;2022-12-07T01:42:12;100654.19;;;2.06;100.00
61645;BME280;47553;52.428;13.382;2022-12-07T01:44:15;100676.59;;;2.23;100.00
61645;BME280;47553;52.428;13.382;2022-12-07T01:46:17;100671.63;;;2.10;100.00
61645;BME280;47553;52.428;13.382;2022-12-07T01:48:23;100646.22;;;2.09;100.00
61645;BME280;47553;52.428;13.382;2022-12-07T01:50:27;100669.44;;;2.28;100.00
61645;BME280;47553;52.428;13.382;2022-12-07T01:52:31;100671.88;;;2.35;100.00
61645;BME280;47553;52.428;13.382;2022-12-07T01:54:35;100659.31;;;2.46;100.00
61645;BME280;47553;52.428;13.382;2022-12-07T01:56:38;100668.38;;;2.35;100.00
61645;BME280;47553;52.428;13.382;2022-12-07T01:58:42;100646.38;;;2.70;100.00
61645;BME280;47553;52.428;13.382;2022-12-07T02:00:44;100647.41;;;2.64;100.00
61645;BME280;47553;52.428;13.382;2022-12-07T02:02:52;100640.63;;;2.56;100.00
61645;BME280;47553;52.428;13.382;2022-12-07T02:04:57;100638.06;;;2.53;100.00
61645;BME280;47553;52.428;13.382;2022-12-07T02:07:00;100644.91;;;2.60;100.00
61645;BME280;47553;52.428;13.382;2022-12-07T02:09:02;100645.56;;;2.35;100.00
61645;BME280;47553;52.428;13.382;2022-12-07T02:11:06;100636.38;;;2.17;100.00
61645;BME280;47553;52.428;13.382;2022-12-07T02:13:11;100650.53;;;2.12;100.00
61645;BME280;47553;52.428;13.382;2022-12-07T02:15:14;100646.81;;;2.21;100.00
61645;BME280;47553;52.428;13.382;2022-12-07T02:17:22;100641.78;;;2.11;100.00
61645;BME280;47553;52.428;13.382;2022-12-07T02:19:57;100645.41;;;2.07;100.00
61645;BME280;47553;52.428;13.382;2022-12-07T02:22:20;100643.66;;;2.06;100.00
61645;BME280;47553;52.428;13.382;2022-12-07T02:24:44;100637.16;;;1.84;100.00
61645;BME280;47553;52.428;13.382;2022-12-07T02:27:07;100630.69;;;1.62;100.00
61645;BME280;47553;52.428;13.382;2022-12-07T02:29:20;100632.97;;;1.38;100.00
61645;BME280;47553;52.428;13.382;2022-12-07T02:31:25;100635.25;;;1.53;100.00
61645;BME280;47553;52.428;13.382;2022-12-07T02:33:32;100635.25;;;1.53;100.00
61645;BME280;47553;52.428;13.382;2022-12-07T02:35:40;100634.63;;;1.42;100.00
61645;BME280;47553;52.428;13.382;2022-12-07T02:37:49;100627.72;;;1.38;100.00
61645;BME280;47553;52.428;13.382;2022-12-07T02:39:58;100627.81;;;1.34;100.00
61645;BME280;47553;52.428;13.382;2022-12-07T02:42:03;100629.03;;;1.58;100.00
61645;BME280;47553;52.428;13.382;2022-12-07T02:44:12;100629.94;;;1.57;100.00
61645;BME280;47553;52.428;13.382;2022-12-07T02:46:20;100619.13;;;1.69;100.00
61645;BME280;47553;52.428;13.382;2022-12-07T02:48:23;100618.78;;;1.45;100.00
61645;BME280;47553;52.428;13.382;2022-12-07T02:50:26;100614.66;;;1.35;100.00
61645;BME280;47553;52.428;13.382;2022-12-07T02:52:28;100612.03;;;1.35;100.00
61645;BME280;47553;52.428;13.382;2022-12-07T02:54:30;100612.97;;;1.33;100.00
61645;BME280;47553;52.428;13.382;2022-12-07T02:56:37;100607.34;;;1.48;100.00
61645;BME280;47553;52.428;13.382;2022-12-07T02:58:50;100609.69;;;1.20;100.00
61645;BME280;47553;52.428;13.382;2022-12-07T03:01:04;100603.75;;;1.12;100.00
61645;BME280;47553;52.428;13.382;2022-12-07T03:03:14;100595.31;;;1.38;100.00
61645;BME280;47553;52.428;13.382;2022-12-07T03:05:29;100588.69;;;1.59;100.00
61645;BME280;47553;52.428;13.382;2022-12-07T03:07:38;100576.59;;;1.51;100.00
61645;BME280;47553;52.428;13.382;2022-12-07T03:09:45;100592.16;;;1.61;100.00
61645;BME280;47553;52.428;13.382;2022-12-07T03:11:55;100593.59;;;1.37;100.00
61645;BME280;47553;52.428;13.382;2022-12-07T03:14:07;100587.44;;;1.38;100.00
61645;BME280;47553;52.428;13.382;2022-12-07T03:16:14;100596.53;;;1.23;100.00
61645;BME280;47553;52.428;13.382;2022-12-07T03:18:20;100587.41;;;1.39;100.00
61645;BME280;47553;52.428;13.382;2022-12-07T03:20:25;100575.09;;;1.41;100.00
61645;BME280;47553;52.428;13.382;2022-12-07T03:22:29;100573.28;;;1.43;100.00
61645;BME280;47553;52.428;13.382;2022-12-07T03:24:35;100568.34;;;1.67;100.00
61645;BME280;47553;52.428;13.382;2022-12-07T03:26:42;100558.81;;;1.63;100.00
61645;BME280;47553;52.428;13.382;2022-12-07T03:28:49;100565.00;;;1.60;100.00
61645;BME280;47553;52.428;13.382;2022-12-07T03:30:57;100564.88;;;1.65;100.00
61645;BME280;47553;52.428;13.382;2022-12-07T03:33:03;100558.88;;;1.60;100.00
61645;BME280;47553;52.428;13.382;2022-12-07T03:35:13;100558.59;;;1.35;100.00
61645;BME280;47553;52.428;13.382;2022-12-07T03:37:21;100543.09;;;1.60;100.00
61645;BME280;47553;52.428;13.382;2022-12-07T03:39:27;100530.47;;;1.74;100.00
61645;BME280;47553;52.428;13.382;2022-12-07T03:41:33;100534.66;;;1.82;100.00
61645;BME280;47553;52.428;13.382;2022-12-07T03:43:41;100520.97;;;1.68;100.00
61645;BME280;47553;52.428;13.382;2022-12-07T03:45:46;100523.09;;;1.88;100.00
61645;BME280;47553;52.428;13.382;2022-12-07T03:47:58;100525.69;;;1.90;100.00
61645;BME280;47553;52.428;13.382;2022-12-07T03:50:07;100508.31;;;1.84;100.00
61645;BME280;47553;52.428;13.382;2022-12-07T03:52:19;100510.41;;;2.05;100.00
61645;BME280;47553;52.428;13.382;2022-12-07T03:54:25;100504.09;;;2.11;100.00
61645;BME280;47553;52.428;13.382;2022-12-07T03:56:29;100500.34;;;2.19;100.00
61645;BME280;47553;52.428;13.382;2022-12-07T03:58:32;100487.28;;;2.16;100.00
61645;BME280;47553;52.428;13.382;2022-12-07T04:00:35;100487.72;;;2.01;100.00
61645;BME280;47553;52.428;13.382;2022-12-07T04:02:37;100499.63;;;2.14;100.00
61645;BME280;47553;52.428;13.382;2022-12-07T04:04:39;100499.53;;;2.17;100.00
61645;BME280;47553;52.428;13.382;2022-12-07T04:06:41;100494.09;;;2.24;100.00
61645;BME280;47553;52.428;13.382;2022-12-07T04:08:44;100491.00;;;2.09;100.00
61645;BME280;47553;52.428;13.382;2022-12-07T04:10:45;100491.53;;;1.88;100.00
61645;BME280;47553;52.428;13.382;2022-12-07T04:12:47;100489.41;;;2.04;100.00
61645;BME280;47553;52.428;13.382;2022-12-07T04:14:49;100491.25;;;2.00;100.00
61645;BME280;47553;52.428;13.382;2022-12-07T04:16:51;100490.75;;;1.84;100.00
61645;BME280;47553;52.428;13.382;2022-12-07T04:18:54;100489.91;;;1.84;100.00
61645;BME280;47553;52.428;13.382;2022-12-07T04:20:55;100483.47;;;1.62;100.00
61645;BME280;47553;52.428;13.382;2022-12-07T04:22:57;100479.78;;;1.69;100.00
61645;BME280;47553;52.428;13.382;2022-12-07T04:25:00;100476.09;;;1.76;100.00
61645;BME280;47553;52.428;13.382;2022-12-07T04:27:02;100479.50;;;1.79;100.00
61645;BME280;47553;52.428;13.382;2022-12-07T04:29:04;100474.19;;;1.81;100.00
61645;BME280;47553;52.428;13.382;2022-12-07T04:31:08;100470.75;;;1.79;100.00
61645;BME280;47553;52.428;13.382;2022-12-07T04:33:10;100465.06;;;1.62;100.00
61645;BME280;47553;52.428;13.382;2022-12-07T04:35:12;100468.97;;;1.79;100.00
61645;BME280;47553;52.428;13.382;2022-12-07T04:37:14;100460.22;;;1.79;100.00
61645;BME280;47553;52.428;13.382;2022-12-07T04:39:20;100461.38;;;1.69;100.00
61645;BME280;47553;52.428;13.382;2022-12-07T04:41:24;100455.75;;;1.48;100.00
61645;BME280;47553;52.428;13.382;2022-12-07T04:43:26;100453.97;;;1.50;100.00
61645;BME280;47553;52.428;13.382;2022-12-07T04:45:27;100452.22;;;1.49;100.00
61645;BME280;47553;52.428;13.382;2022-12-07T04:47:29;100442.75;;;1.44;100.00
61645;BME280;47553;52.428;13.382;2022-12-07T04:49:31;100448.47;;;1.60;100.00
61645;BME280;47553;52.428;13.382;2022-12-07T04:51:33;100453.47;;;1.69;100.00
61645;BME280;47553;52.428;13.382;2022-12-07T04:53:34;100446.34;;;1.74;100.00
61645;BME280;47553;52.428;13.382;2022-12-07T04:55:36;100442.38;;;1.58;100.00
61645;BME280;47553;52.428;13.382;2022-12-07T04:57:40;100443.59;;;1.44;100.00
61645;BME280;47553;52.428;13.382;2022-12-07T04:59:41;100435.59;;;1.49;100.00
61645;BME280;47553;52.428;13.382;2022-12-07T05:01:46;100422.66;;;1.41;100.00
61645;BME280;47553;52.428;13.382;2022-12-07T05:03:48;100430.97;;;1.59;100.00
61645;BME280;47553;52.428;13.382;2022-12-07T05:05:50;100433.16;;;1.41;100.00
61645;BME280;47553;52.428;13.382;2022-12-07T05:07:51;100426.34;;;1.34;100.00
61645;BME280;47553;52.428;13.382;2022-12-07T05:09:53;100424.22;;;1.48;100.00
61645;BME280;47553;52.428;13.382;2022-12-07T05:11:55;100425.72;;;1.59;100.00
61645;BME280;47553;52.428;13.382;2022-12-07T05:13:58;100427.69;;;1.50;100.00
61645;BME280;47553;52.428;13.382;2022-12-07T05:16:00;100434.91;;;1.42;100.00
61645;BME280;47553;52.428;13.382;2022-12-07T05:18:02;100425.13;;;1.47;100.00
61645;BME280;47553;52.428;13.382;2022-12-07T05:20:05;100436.81;;;1.36;100.00
61645;BME280;47553;52.428;13.382;2022-12-07T05:22:07;100427.91;;;1.41;100.00
61645;BME280;47553;52.428;13.382;2022-12-07T05:24:11;100430.63;;;1.38;100.00
61645;BME280;47553;52.428;13.382;2022-12-07T05:26:13;100421.88;;;1.38;100.00
61645;BME280;47553;52.428;13.382;2022-12-07T05:28:15;100420.03;;;1.41;100.00
61645;BME280;47553;52.428;13.382;2022-12-07T05:30:19;100420.91;;;1.42;100.00
61645;BME280;47553;52.428;13.382;2022-12-07T05:32:21;100429.13;;;1.28;100.00
61645;BME280;47553;52.428;13.382;2022-12-07T05:34:23;100421.00;;;1.37;100.00
61645;BME280;47553;52.428;13.382;2022-12-07T05:36:25;100391.38;;;1.32;100.00
61645;BME280;47553;52.428;13.382;2022-12-07T05:38:27;100422.25;;;1.57;100.00
61645;BME280;47553;52.428;13.382;2022-12-07T05:40:28;100419.22;;;1.72;100.00
61645;BME280;47553;52.428;13.382;2022-12-07T05:42:30;100424.47;;;1.72;100.00
61645;BME280;47553;52.428;13.382;2022-12-07T05:44:32;100420.88;;;1.76;100.00
61645;BME280;47553;52.428;13.382;2022-12-07T05:46:35;100418.31;;;1.73;100.00
61645;BME280;47553;52.428;13.382;2022-12-07T05:48:37;100415.28;;;1.88;100.00
61645;BME280;47553;52.428;13.382;2022-12-07T05:50:39;100413.66;;;1.82;100.00
61645;BME280;47553;52.428;13.382;2022-12-07T05:52:40;100403.06;;;1.85;100.00
61645;BME280;47553;52.428;13.382;2022-12-07T05:54:42;100399.28;;;1.96;100.00
61645;BME280;47553;52.428;13.382;2022-12-07T05:56:45;100405.25;;;2.02;100.00
61645;BME280;47553;52.428;13.382;2022-12-07T05:58:47;100364.25;;;1.63;100.00
61645;BME280;47553;52.428;13.382;2022-12-07T06:00:53;100382.19;;;1.79;100.00
61645;BME280;47553;52.428;13.382;2022-12-07T06:02:57;100376.94;;;1.79;100.00
61645;BME280;47553;52.428;13.382;2022-12-07T06:04:59;100396.84;;;1.88;100.00
61645;BME280;47553;52.428;13.382;2022-12-07T06:07:01;100388.78;;;2.25;100.00
61645;BME280;47553;52.428;13.382;2022-12-07T06:09:04;100384.75;;;2.13;100.00
61645;BME280;47553;52.428;13.382;2022-12-07T06:11:06;100397.66;;;2.23;100.00
61645;BME280;47553;52.428;13.382;2022-12-07T06:13:08;100388.84;;;2.24;100.00
61645;BME280;47553;52.428;13.382;2022-12-07T06:15:10;100382.03;;;2.16;100.00
61645;BME280;47553;52.428;13.382;2022-12-07T06:17:12;100381.19;;;2.16;100.00
61645;BME280;47553;52.428;13.382;2022-12-07T06:19:15;100378.31;;;2.24;100.00
61645;BME280;47553;52.428;13.382;2022-12-07T06:21:17;100374.78;;;2.25;100.00
61645;BME280;47553;52.428;13.382;2022-12-07T06:23:19;100381.72;;;2.27;100.00
61645;BME280;47553;52.428;13.382;2022-12-07T06:25:21;100380.69;;;2.33;100.00
61645;BME280;47553;52.428;13.382;2022-12-07T06:27:23;100370.16;;;2.33;100.00
61645;BME280;47553;52.428;13.382;2022-12-07T06:29:24;100378.03;;;2.33;100.00
61645;BME280;47553;52.428;13.382;2022-12-07T06:31:26;100373.16;;;2.21;100.00
61645;BME280;47553;52.428;13.382;2022-12-07T06:33:29;100381.41;;;2.38;100.00
61645;BME280;47553;52.428;13.382;2022-12-07T06:35:33;100373.06;;;2.51;100.00
61645;BME280;47553;52.428;13.382;2022-12-07T06:37:35;100373.63;;;2.33;100.00
61645;BME280;47553;52.428;13.382;2022-12-07T06:39:37;100365.50;;;2.41;100.00
61645;BME280;47553;52.428;13.382;2022-12-07T06:41:38;100347.28;;;2.05;100.00
61645;BME280;47553;52.428;13.382;2022-12-07T06:43:40;100364.63;;;2.12;100.00
61645;BME280;47553;52.428;13.382;2022-12-07T06:45:42;100367.28;;;2.11;100.00
61645;BME280;47553;52.428;13.382;2022-12-07T06:47:44;100351.78;;;2.02;100.00
61645;BME280;47553;52.428;13.382;2022-12-07T06:49:47;100377.88;;;2.09;100.00
61645;BME280;47553;52.428;13.382;2022-12-07T06:51:51;100373.69;;;2.32;100.00
61645;BME280;47553;52.428;13.382;2022-12-07T06:53:53;100368.84;;;3.02;100.00
61645;BME280;47553;52.428;13.382;2022-12-07T06:55:54;100368.44;;;3.90;100.00
61645;BME280;47553;52.428;13.382;2022-12-07T06:57:56;100365.88;;;3.64;100.00
61645;BME280;47553;52.428;13.382;2022-12-07T06:59:58;100353.06;;;4.01;100.00
61645;BME280;47553;52.428;13.382;2022-12-07T07:02:01;100356.75;;;3.72;100.00
61645;BME280;47553;52.428;13.382;2022-12-07T07:04:03;100358.06;;;4.09;100.00
61645;BME280;47553;52.428;13.382;2022-12-07T07:06:06;100364.31;;;4.30;100.00
61645;BME280;47553;52.428;13.382;2022-12-07T07:08:09;100356.94;;;3.68;100.00
61645;BME280;47553;52.428;13.382;2022-12-07T07:10:27;100362.97;;;3.46;100.00
61645;BME280;47553;52.428;13.382;2022-12-07T07:12:28;100361.03;;;3.25;100.00
61645;BME280;47553;52.428;13.382;2022-12-07T07:14:30;100356.50;;;3.04;100.00
61645;BME280;47553;52.428;13.382;2022-12-07T07:16:32;100360.53;;;3.14;100.00
61645;BME280;47553;52.428;13.382;2022-12-07T07:18:34;100357.81;;;3.17;100.00
61645;BME280;47553;52.428;13.382;2022-12-07T07:20:36;100373.38;;;2.98;100.00
61645;BME280;47553;52.428;13.382;2022-12-07T07:22:38;100363.28;;;3.11;100.00
61645;BME280;47553;52.428;13.382;2022-12-07T07:24:41;100353.97;;;3.01;100.00
61645;BME280;47553;52.428;13.382;2022-12-07T07:26:43;100361.47;;;3.13;100.00
61645;BME280;47553;52.428;13.382;2022-12-07T07:28:45;100371.91;;;3.16;100.00
61645;BME280;47553;52.428;13.382;2022-12-07T07:30:47;100368.97;;;2.99;100.00
61645;BME280;47553;52.428;13.382;2022-12-07T07:32:48;100372.00;;;3.13;100.00
61645;BME280;47553;52.428;13.382;2022-12-07T07:34:50;100321.28;;;2.80;100.00
61645;BME280;47553;52.428;13.382;2022-12-07T07:36:51;100367.38;;;2.93;100.00
61645;BME280;47553;52.428;13.382;2022-12-07T07:38:53;100339.72;;;2.80;100.00
61645;BME280;47553;52.428;13.382;2022-12-07T07:40:56;100326.16;;;2.64;100.00
61645;BME280;47553;52.428;13.382;2022-12-07T07:42:58;100318.00;;;2.73;100.00
61645;BME280;47553;52.428;13.382;2022-12-07T07:45:00;100361.16;;;2.96;100.00
61645;BME280;47553;52.428;13.382;2022-12-07T07:47:01;100354.88;;;3.00;100.00
61645;BME280;47553;52.428;13.382;2022-12-07T07:49:03;100338.63;;;2.87;100.00
61645;BME280;47553;52.428;13.382;2022-12-07T07:51:05;100319.47;;;2.54;100.00
61645;BME280;47553;52.428;13.382;2022-12-07T07:53:07;100344.41;;;2.70;100.00
61645;BME280;47553;52.428;13.382;2022-12-07T07:55:09;100326.06;;;2.67;100.00
61645;BME280;47553;52.428;13.382;2022-12-07T07:57:12;100367.53;;;2.89;100.00
61645;BME280;47553;52.428;13.382;2022-12-07T07:59:14;100318.66;;;2.52;100.00
61645;BME280;47553;52.428;13.382;2022-12-07T08:01:16;100315.72;;;2.61;100.00
61645;BME280;47553;52.428;13.382;2022-12-07T08:03:18;100360.53;;;2.88;100.00
61645;BME280;47553;52.428;13.382;2022-12-07T08:05:20;100327.78;;;2.68;100.00
61645;BME280;47553;52.428;13.382;2022-12-07T08:07:21;100322.63;;;2.65;100.00
61645;BME280;47553;52.428;13.382;2022-12-07T08:09:23;100379.19;;;3.08;100.00
61645;BME280;47553;52.428;13.382;2022-12-07T08:11:25;100334.22;;;2.88;100.00
61645;BME280;47553;52.428;13.382;2022-12-07T08:13:28;100378.13;;;3.13;100.00
61645;BME280;47553;52.428;13.382;2022-12-07T08:15:32;100343.41;;;3.01;100.00
61645;BME280;47553;52.428;13.382;2022-12-07T08:17:34;100381.78;;;3.09;100.00
61645;BME280;47553;52.428;13.382;2022-12-07T08:19:35;100386.78;;;3.17;100.00
61645;BME280;47553;52.428;13.382;2022-12-07T08:21:37;100366.94;;;3.07;100.00
61645;BME280;47553;52.428;13.382;2022-12-07T08:23:39;100380.91;;;3.09;100.00
61645;BME280;47553;52.428;13.382;2022-12-07T08:25:41;100372.75;;;3.17;100.00
61645;BME280;47553;52.428;13.382;2022-12-07T08:27:43;100372.00;;;3.13;100.00
61645;BME280;47553;52.428;13.382;2022-12-07T08:29:46;100382.63;;;3.10;100.00
61645;BME280;47553;52.428;13.382;2022-12-07T08:31:47;100394.91;;;3.11;100.00
61645;BME280;47553;52.428;13.382;2022-12-07T08:33:49;100376.97;;;3.22;100.00
61645;BME280;47553;52.428;13.382;2022-12-07T08:35:50;100377.22;;;3.14;100.00
61645;BME280;47553;52.428;13.382;2022-12-07T08:37:52;100392.47;;;3.05;100.00
61645;BME280;47553;52.428;13.382;2022-12-07T08:39:54;100394.44;;;2.98;100.00
61645;BME280;47553;52.428;13.382;2022-12-07T08:41:55;100387.03;;;3.09;100.00
61645;BME280;47553;52.428;13.382;2022-12-07T08:43:57;100381.16;;;3.28;100.00
61645;BME280;47553;52.428;13.382;2022-12-07T08:46:06;100385.78;;;3.21;100.00
61645;BME280;47553;52.428;13.382;2022-12-07T08:48:11;100388.78;;;3.10;100.00
61645;BME280;47553;52.428;13.382;2022-12-07T08:50:14;100389.44;;;3.17;100.00
61645;BME280;47553;52.428;13.382;2022-12-07T08:52:16;100393.75;;;3.20;100.00
61645;BME280;47553;52.428;13.382;2022-12-07T08:54:19;100399.56;;;3.29;100.00
61645;BME280;47553;52.428;13.382;2022-12-07T08:56:24;100402.50;;;3.46;100.00
61645;BME280;47553;52.428;13.382;2022-12-07T08:58:26;100401.88;;;3.38;100.00
61645;BME280;47553;52.428;13.382;2022-12-07T09:00:28;100401.69;;;3.44;100.00
61645;BME280;47553;52.428;13.382;2022-12-07T09:02:32;100406.34;;;3.36;100.00
61645;BME280;47553;52.428;13.382;2022-12-07T09:04:36;100406.19;;;3.41;100.00
61645;BME280;47553;52.428;13.382;2022-12-07T09:06:38;100392.25;;;3.37;100.00
61645;BME280;47553;52.428;13.382;2022-12-07T09:08:42;100409.91;;;3.35;100.00
61645;BME280;47553;52.428;13.382;2022-12-07T09:10:45;100411.41;;;3.42;100.00
61645;BME280;47553;52.428;13.382;2022-12-07T09:12:47;100425.09;;;3.27;99.52
61645;BME280;47553;52.428;13.382;2022-12-07T09:14:48;100410.41;;;3.20;96.32
61645;BME280;47553;52.428;13.382;2022-12-07T09:16:50;100414.06;;;3.16;95.91
61645;BME280;47553;52.428;13.382;2022-12-07T09:18:54;100412.34;;;3.15;96.69
61645;BME280;47553;52.428;13.382;2022-12-07T09:20:56;100410.81;;;3.08;96.17
61645;BME280;47553;52.428;13.382;2022-12-07T09:22:58;100416.91;;;3.10;98.39
61645;BME280;47553;52.428;13.382;2022-12-07T09:25:00;100407.16;;;3.12;97.19
61645;BME280;47553;52.428;13.382;2022-12-07T09:27:03;100412.69;;;3.31;97.97
61645;BME280;47553;52.428;13.382;2022-12-07T09:29:05;100424.59;;;3.16;98.16
61645;BME280;47553;52.428;13.382;2022-12-07T09:31:07;100421.81;;;3.21;96.46
61645;BME280;47553;52.428;13.382;2022-12-07T09:33:25;100415.94;;;3.12;96.72
61645;BME280;47553;52.428;13.382;2022-12-07T09:35:28;100421.88;;;3.19;94.22
61645;BME280;47553;52.428;13.382;2022-12-07T09:37:30;100428.84;;;2.94;94.73
61645;BME280;47553;52.428;13.382;2022-12-07T09:39:32;100431.19;;;3.03;95.17
61645;BME280;47553;52.428;13.382;2022-12-07T09:41:37;100420.50;;;3.07;95.69
61645;BME280;47553;52.428;13.382;2022-12-07T09:43:40;100434.63;;;3.31;95.59
61645;BME280;47553;52.428;13.382;2022-12-07T09:45:44;100430.38;;;3.27;97.10
61645;BME280;47553;52.428;13.382;2022-12-07T09:47:49;100428.88;;;3.46;95.90
61645;BME280;47553;52.428;13.382;2022-12-07T09:49:53;100431.16;;;3.57;96.20
61645;BME280;47553;52.428;13.382;2022-12-07T09:52:02;100436.44;;;3.57;95.73
61645;BME280;47553;52.428;13.382;2022-12-07T09:54:05;100449.53;;;3.32;95.16
61645;BME280;47553;52.428;13.382;2022-12-07T09:56:11;100438.88;;;3.09;96.13
61645;BME280;47553;52.428;13.382;2022-12-07T09:58:19;100452.59;;;3.20;95.63
61645;BME280;47553;52.428;13.382;2022-12-07T10:00:23;100448.16;;;3.21;95.68
61645;BME280;47553;52.428;13.382;2022-12-07T10:02:34;100445.38;;;3.25;93.07
61645;BME280;47553;52.428;13.382;2022-12-07T10:04:37;100448.47;;;3.11;92.24
61645;BME280;47553;52.428;13.382;2022-12-07T10:06:39;100462.00;;;3.01;93.69
61645;BME280;47553;52.428;13.382;2022-12-07T10:08:42;100453.84;;;2.80;93.38
61645;BME280;47553;52.428;13.382;2022-12-07T10:10:45;100440.94;;;2.71;94.78
61645;BME280;47553;52.428;13.382;2022-12-07T10:12:58;100455.47;;;2.85;93.98
61645;BME280;47553;52.428;13.382;2022-12-07T10:15:03;100454.03;;;3.02;94.36
61645;BME280;47553;52.428;13.382;2022-12-07T10:17:30;100449.81;;;2.97;94.88
61645;BME280;47553;52.428;13.382;2022-12-07T10:19:33;100443.63;;;2.98;93.98
61645;BME280;47553;52.428;13.382;2022-12-07T10:21:34;100450.78;;;2.94;93.69
61645;BME280;47553;52.428;13.382;2022-12-07T10:23:38;100455.38;;;2.88;93.47
61645;BME280;47553;52.428;13.382;2022-12-07T10:25:41;100447.91;;;3.02;93.67
61645;BME280;47553;52.428;13.382;2022-12-07T10:27:43;100459.63;;;2.92;92.55
61645;BME280;47553;52.428;13.382;2022-12-07T10:29:47;100451.94;;;2.86;93.58
61645;BME280;47553;52.428;13.382;2022-12-07T10:31:54;100457.19;;;2.86;95.35
61645;BME280;47553;52.428;13.382;2022-12-07T10:33:58;100445.31;;;2.72;95.44
61645;BME280;47553;52.428;13.382;2022-12-07T10:36:16;100460.34;;;2.97;95.70
61645;BME280;47553;52.428;13.382;2022-12-07T10:38:18;100456.81;;;2.98;96.34
61645;BME280;47553;52.428;13.382;2022-12-07T10:40:32;100438.63;;;3.17;95.49